Latest Coastal Weather Observations for Gunn Point

IDD60701

Issued at 7:51 pm CST Tuesday 27 September 2016 (issued every 10 minutes, with the page automatically refreshed every 10 minutes)

About coastal observations | Map of coastal stations | Coastal observations for NT | Marine services | Other Formats
Station Details ID: 014023 Name: GUNN POINT Lat: -12.25 Lon: 131.04 Height: 25.0 m
Data from the previous 72 hours. | See also: Recent months for locations in Northern Territory
Date/Time
CST
Temp
°C
Wind Pressure Rain since
9am
mm
Weather Cloud Vis
km
Sea
Height
m
Swell
Dir  Spd
kts
Gust
kts
hPa Trend Height
m
Period
s
Dir
27/07:30pm 28.7 NNW 4 7 1009.2 - 0.0 - - - - - - -
27/07:00pm 27.9 CALM 0 2 1008.7 - 0.0 - - - - - - -
27/06:30pm 29.7 CALM 0 2 1008.3 - 0.0 - - - - - - -
27/06:00pm 30.9 N 2 5 1008.3 - 0.0 - - - - - - -
27/05:30pm 32.1 NE 3 6 1008.0 - 0.0 - - - - - - -
27/05:00pm 32.8 NE 5 9 1007.8 - 0.0 - - - - - - -
27/04:30pm 33.2 NE 5 8 1007.6 - 0.0 - - - - - - -
27/04:00pm 32.1 WNW 4 6 1007.6 - 0.0 - - - - - - -
27/03:30pm 32.0 W 5 8 1007.9 - 0.0 - - - - - - -
27/03:00pm 31.2 W 6 10 1008.3 - 0.0 - - - - - - -
27/02:30pm 31.3 NW 7 11 1008.6 - 0.0 - - - - - - -
27/02:00pm 31.7 WNW 6 12 1008.9 - 0.0 - - - - - - -
27/01:30pm 31.6 W 5 10 1009.3 - 0.0 - - - - - - -
27/01:00pm 30.6 WNW 5 11 1009.9 - 0.0 - - - - - - -
27/12:30pm 30.9 W 4 9 1010.5 - 0.0 - - - - - - -
27/12:00pm 30.9 W 5 10 1011.1 - 0.0 - - - - - - -
27/11:30am 30.0 WSW 6 10 1011.6 - 0.0 - - - - - - -
27/11:00am 30.4 W 5 8 1012.1 - 0.0 - - - - - - -
27/10:30am 29.6 WNW 5 8 1012.3 - 0.0 - - - - - - -
27/10:00am 29.5 WNW 4 7 1012.4 - 0.0 - - - - - - -
27/09:30am 29.2 W 4 7 1012.4 - 0.0 - - - - - - -
27/09:00am 29.2 W 4 7 1012.3 - 0.0 - - - - - - -
27/08:30am 28.6 NNW 3 5 1012.3 - 0.0 - - - - - - -
27/08:00am 28.1 NW 1 4 1012.1 - 0.0 - - - - - - -
27/07:30am 25.8 CALM 0 0 1011.8 - 0.0 - - - - - - -
27/07:00am 24.5 CALM 0 1 1011.5 - 0.0 - - - - - - -
27/06:30am 24.2 CALM 0 2 1011.1 - 0.0 - - - - - - -
27/06:00am 24.7 CALM 0 0 1010.8 - 0.0 - - - - - - -
27/05:30am 25.1 CALM 0 0 1010.5 - 0.0 - - - - - - -
27/05:00am 25.9 N 1 3 1010.2 - 0.0 - - - - - - -
27/04:30am 26.7 NNW 1 4 1009.8 - 0.0 - - - - - - -
27/04:00am 27.5 WNW 3 6 1009.5 - 0.0 - - - - - - -
27/03:30am 27.5 W 2 5 1009.4 - 0.0 - - - - - - -
27/03:00am 27.3 W 1 5 1009.3 - 0.0 - - - - - - -
27/02:30am 27.1 W 1 3 1009.4 - 0.0 - - - - - - -
27/02:00am 27.2 CALM 0 2 1009.7 - 0.0 - - - - - - -
27/01:30am 27.8 WNW 1 3 1009.9 - 0.0 - - - - - - -
27/01:00am 28.0 WNW 2 4 1010.0 - 0.0 - - - - - - -
27/12:30am 28.0 W 2 5 1010.3 - 0.0 - - - - - - -
27/12:00am 26.8 WNW 1 3 1010.5 - 0.0 - - - - - - -
 
Date/Time
CST
Temp
°C
Wind Pressure Rain since
9am
mm
Weather Cloud Vis
km
Sea
Height
m
Swell
Dir  Spd
kts
Gust
kts
hPa Trend Height
m
Period
s
Dir
26/11:30pm 25.2 CALM 0 0 1010.7 - 0.0 - - - - - - -
26/11:00pm 25.2 CALM 0 0 1010.8 - 0.0 - - - - - - -
26/10:30pm 25.3 CALM 0 0 1010.9 - 0.0 - - - - - - -
26/10:00pm 25.4 CALM 0 0 1010.9 - 0.0 - - - - - - -
26/09:30pm 25.5 CALM 0 0 1010.6 - 0.0 - - - - - - -
26/09:00pm 25.6 CALM 0 0 1010.2 - 0.0 - - - - - - -
26/08:30pm 25.9 CALM 0 0 1009.9 - 0.0 - - - - - - -
26/08:00pm 26.4 CALM 0 0 1009.6 - 0.0 - - - - - - -
26/07:30pm 27.3 CALM 0 1 1009.4 - 0.0 - - - - - - -
26/07:00pm 27.7 NNE 1 3 1008.9 - 0.0 - - - - - - -
26/06:30pm 28.9 CALM 0 0 1008.6 - 0.0 - - - - - - -
26/06:00pm 29.6 CALM 0 2 1008.1 - 0.0 - - - - - - -
26/05:30pm 29.8 NE 2 5 1007.8 - 0.0 - - - - - - -
26/05:00pm 30.1 NNE 3 6 1007.7 - 0.0 - - - - - - -
26/04:30pm 30.5 NNE 5 9 1008.0 - 0.0 - - - - - - -
26/04:00pm 32.6 NE 5 9 1007.9 - 0.0 - - - - - - -
26/03:30pm 32.1 NNE 5 8 1007.9 - 0.0 - - - - - - -
26/03:00pm 32.4 NNE 5 10 1007.9 - 0.0 - - - - - - -
26/02:30pm 32.9 NNE 6 10 1007.9 - 0.0 - - - - - - -
26/02:00pm 32.5 N 7 13 1008.1 - 0.0 - - - - - - -
26/01:30pm 32.2 NNW 5 10 1008.4 - 0.0 - - - - - - -
26/01:00pm 32.1 WNW 6 10 1009.0 - 0.0 - - - - - - -
26/12:30pm 31.3 WNW 6 10 1009.4 - 0.0 - - - - - - -
26/12:00pm 31.6 W 5 8 1009.8 - 0.0 - - - - - - -
26/11:30am 31.8 WNW 5 8 1010.2 - 0.0 - - - - - - -
26/11:00am 31.7 WNW 4 6 1010.6 - 0.0 - - - - - - -
26/10:30am 31.6 W 3 6 1010.8 - 0.0 - - - - - - -
26/10:00am 31.6 WSW 1 4 1011.1 - 0.0 - - - - - - -
26/09:30am 31.0 NE 1 4 1011.2 - 0.0 - - - - - - -
26/09:00am 29.5 NNE 1 3 1011.2 - 0.0 - - - - - - -
26/08:30am 28.9 NE 2 4 1010.9 - 0.0 - - - - - - -
26/08:00am 27.6 CALM 0 2 1010.6 - 0.0 - - - - - - -
26/07:30am 26.7 CALM 0 0 1010.2 - 0.0 - - - - - - -
26/07:00am 25.2 CALM 0 0 1009.7 - 0.0 - - - - - - -
26/06:30am 25.2 NE 2 3 1009.3 - 0.0 - - - - - - -
26/06:00am 25.3 ENE 2 4 1009.1 - 0.0 - - - - - - -
26/05:30am 25.5 CALM 0 0 1008.6 - 0.0 - - - - - - -
26/05:00am 26.1 CALM 0 0 1008.2 - 0.0 - - - - - - -
26/04:30am 26.7 CALM 0 0 1007.9 - 0.0 - - - - - - -
26/04:00am 27.9 WSW 1 3 1007.8 - 0.0 - - - - - - -
26/03:30am 28.0 W 1 4 1008.0 - 0.0 - - - - - - -
26/03:00am 28.0 WSW 2 4 1008.1 - 0.0 - - - - - - -
26/02:30am 28.1 WSW 1 5 1008.4 - 0.0 - - - - - - -
26/02:00am 28.2 WSW 3 6 1008.6 - 0.0 - - - - - - -
26/01:30am 28.4 WSW 3 6 1008.7 - 0.0 - - - - - - -
26/01:00am 28.2 W 2 5 1009.0 - 0.0 - - - - - - -
26/12:30am 28.5 W 4 7 1009.6 - 0.0 - - - - - - -
26/12:00am 28.6 W 3 8 1010.0 - 0.0 - - - - - - -
 
Date/Time
CST
Temp
°C
Wind Pressure Rain since
9am
mm
Weather Cloud Vis
km
Sea
Height
m
Swell
Dir  Spd
kts
Gust
kts
hPa Trend Height
m
Period
s
Dir
25/11:30pm 28.5 W 4 6 1010.1 - 0.0 - - - - - - -
25/11:00pm 28.6 W 3 7 1010.1 - 0.0 - - - - - - -
25/10:30pm 28.6 W 5 7 1010.1 - 0.0 - - - - - - -
25/10:00pm 28.6 W 3 7 1009.9 - 0.0 - - - - - - -
25/09:30pm 28.6 W 4 7 1009.7 - 0.0 - - - - - - -
25/09:00pm 28.7 WSW 4 7 1009.4 - 0.0 - - - - - - -
25/08:30pm 28.7 W 4 7 1009.2 - 0.0 - - - - - - -
25/08:00pm 28.9 W 4 8 1008.6 - 0.0 - - - - - - -
25/07:30pm 29.0 W 4 7 1008.4 - 0.0 - - - - - - -
25/07:00pm 29.2 WSW 4 9 1007.9 - 0.0 - - - - - - -
25/06:30pm 29.6 WSW 5 9 1007.7 - 0.0 - - - - - - -
25/06:00pm 29.9 W 6 10 1007.3 - 0.0 - - - - - - -
25/05:30pm 30.5 WSW 7 11 1007.1 - 0.0 - - - - - - -
25/05:00pm 30.9 WSW 8 13 1007.0 - 0.0 - - - - - - -
25/04:30pm 30.9 W 7 13 1006.9 - 0.0 - - - - - - -
25/04:00pm 31.7 W 7 13 1007.0 - 0.0 - - - - - - -
25/03:30pm 32.0 W 6 11 1007.2 - 0.0 - - - - - - -
25/03:00pm 31.7 W 7 14 1007.3 - 0.0 - - - - - - -
25/02:30pm 32.1 W 7 13 1007.4 - 0.0 - - - - - - -
25/02:00pm 31.6 W 8 13 1007.7 - 0.0 - - - - - - -
25/01:30pm 30.8 W 7 13 1008.3 - 0.0 - - - - - - -
25/01:00pm 31.0 W 7 12 1008.6 - 0.0 - - - - - - -
25/12:30pm 30.7 W 7 12 1009.1 - 0.0 - - - - - - -
25/12:00pm 30.5 W 7 11 1009.6 - 0.0 - - - - - - -
25/11:30am 30.2 W 6 9 1010.2 - 0.0 - - - - - - -
25/11:00am 30.5 W 5 8 1010.4 - 0.0 - - - - - - -
25/10:30am 30.6 W 5 8 1010.6 - 0.0 - - - - - - -
25/10:00am 30.3 WNW 4 6 1010.6 - 0.0 - - - - - - -
25/09:30am 29.2 SW 1 4 1010.5 - 0.0 - - - - - - -
25/09:00am 29.4 NW 2 6 1010.3 - 0.0 - - - - - - -
25/08:30am 28.9 CALM 0 0 1010.0 - 0.0 - - - - - - -
25/08:00am 27.6 E 1 2 1009.7 - 0.0 - - - - - - -
25/07:30am 25.5 SE 1 2 1009.2 - 0.0 - - - - - - -
25/07:00am 24.8 CALM 0 0 1008.8 - 0.0 - - - - - - -
25/06:30am 24.9 CALM 0 0 1008.4 - 0.0 - - - - - - -
25/06:00am 25.1 CALM 0 0 1008.3 - 0.0 - - - - - - -
25/05:30am 25.7 CALM 0 0 1008.0 - 0.0 - - - - - - -
25/05:00am 26.9 CALM 0 0 1007.7 - 0.0 - - - - - - -
25/04:30am 27.6 WSW 1 3 1007.8 - 0.0 - - - - - - -
25/04:00am 27.9 W 1 5 1007.9 - 0.0 - - - - - - -
25/03:30am 28.0 W 1 5 1007.9 - 0.0 - - - - - - -
25/03:00am 27.8 WSW 2 4 1007.8 - 0.0 - - - - - - -
25/02:30am 27.7 WSW 1 4 1008.0 - 0.0 - - - - - - -
25/02:00am 27.9 WSW 2 4 1008.2 - 0.0 - - - - - - -
25/01:30am 28.1 WSW 4 7 1008.5 - 0.0 - - - - - - -
25/01:00am 28.2 WSW 3 6 1008.8 - 0.0 - - - - - - -
25/12:30am 28.1 WSW 3 7 1009.0 - 0.0 - - - - - - -
25/12:00am 28.0 WSW 2 6 1009.3 - 0.0 - - - - - - -
 
Date/Time
CST
Temp
°C
Wind Pressure Rain since
9am
mm
Weather Cloud Vis
km
Sea
Height
m
Swell
Dir  Spd
kts
Gust
kts
hPa Trend Height
m
Period
s
Dir
24/11:30pm 27.9 SW 1 3 1009.5 - 0.0 - - - - - - -
24/11:00pm 27.9 SW 1 4 1009.7 - 0.0 - - - - - - -
24/10:30pm 28.2 SW 1 3 1009.6 - 0.0 - - - - - - -
24/10:00pm 28.3 WSW 3 5 1009.4 - 0.0 - - - - - - -
24/09:30pm 27.8 WSW 2 4 1009.0 - 0.0 - - - - - - -
24/09:00pm 25.0 CALM 0 0 1009.0 - 0.0 - - - - - - -
24/08:30pm 25.4 CALM 0 0 1008.5 - 0.0 - - - - - - -
24/08:00pm 26.1 CALM 0 0 1008.3 - 0.0 - - - - - - -

Other Formats:

Comma delimited format used in spreadsheet applications
http://www.bom.gov.au/fwo/IDD60701/IDD60701.99501.axf

JavaScript Object Notation format (JSON) in row-major order
http://www.bom.gov.au/fwo/IDD60701/IDD60701.99501.json